Klawock Airport Klawock US
ICAO: PAKW
IATA:
Category: Medium
Scheduled Services:

Elevation: 80 ft
TransAlt. 18000 ft.

Airport Communications:
ASOS:135.45
ANCHORAGE CNTR:118.5
CTAF:120.9
KETCHIKAN RDO:122.25

PAKW Zoom In..

If you have problems with the map follow the link
https://www.worldairports.se/pages/airport.php?
ICAO=PAKW

Runways:

(A) RW 02 length 5000 ft width 100 ft
---- / hdg 19

(B) RW 20 length 5000 ft width 100 ft
---- / hdg 199

Location; PAKW
Day. 21 / Time. 17.53 Zulu
* Altimeter: 29.34
* Temperature: 03° c. 37.4°f.
* Wind from: 030° Speed 07 kn.
Dewpoint: 00° c.
Visibility: 8 Statute Miles.
Clouds: Overcast 3200 ft.
Conditions: Light Rain.

PAKW 211753Z AUTO 03007KT 8SM -RA OVC032 03/00 A2934 RMK RAB13 SLP937 P0000 60000 T00330000 10039 20028 53003 TSNO VIA AUTODIAL


Wind From 030°
Speed 07 kn.

 
 
jpsmedia worldairports.se 2020   terms of use